sensor_id;sensor_type;location;lat;lon;timestamp;P1;durP1;ratioP1;P2;durP2;ratioP2
36593;SDS011;22603;47.900;8.146;2023-04-12T00:02:38;1.73;;;0.90;;
36593;SDS011;22603;47.900;8.146;2023-04-12T00:05:26;2.67;;;1.03;;
36593;SDS011;22603;47.900;8.146;2023-04-12T00:08:16;2.00;;;0.90;;
36593;SDS011;22603;47.900;8.146;2023-04-12T00:11:03;2.97;;;1.27;;
36593;SDS011;22603;47.900;8.146;2023-04-12T00:13:50;1.70;;;0.77;;
36593;SDS011;22603;47.900;8.146;2023-04-12T00:16:37;3.90;;;0.90;;
36593;SDS011;22603;47.900;8.146;2023-04-12T00:19:24;1.97;;;1.00;;
36593;SDS011;22603;47.900;8.146;2023-04-12T00:22:11;4.67;;;1.13;;
36593;SDS011;22603;47.900;8.146;2023-04-12T00:24:59;1.87;;;1.00;;
36593;SDS011;22603;47.900;8.146;2023-04-12T00:27:46;2.90;;;1.27;;
36593;SDS011;22603;47.900;8.146;2023-04-12T00:30:33;1.73;;;0.90;;
36593;SDS011;22603;47.900;8.146;2023-04-12T00:33:20;1.07;;;0.80;;
36593;SDS011;22603;47.900;8.146;2023-04-12T00:36:07;2.33;;;1.07;;
36593;SDS011;22603;47.900;8.146;2023-04-12T00:38:54;2.33;;;1.00;;
36593;SDS011;22603;47.900;8.146;2023-04-12T00:41:43;2.60;;;0.97;;
36593;SDS011;22603;47.900;8.146;2023-04-12T00:44:29;3.13;;;0.87;;
36593;SDS011;22603;47.900;8.146;2023-04-12T00:47:16;1.73;;;0.83;;
36593;SDS011;22603;47.900;8.146;2023-04-12T00:50:03;2.53;;;1.27;;
36593;SDS011;22603;47.900;8.146;2023-04-12T00:52:52;2.17;;;0.93;;
36593;SDS011;22603;47.900;8.146;2023-04-12T00:55:41;0.80;;;0.70;;
36593;SDS011;22603;47.900;8.146;2023-04-12T00:58:31;8.77;;;0.80;;
36593;SDS011;22603;47.900;8.146;2023-04-12T01:01:19;1.80;;;1.00;;
36593;SDS011;22603;47.900;8.146;2023-04-12T01:04:06;4.13;;;1.03;;
36593;SDS011;22603;47.900;8.146;2023-04-12T01:07:03;2.77;;;0.97;;
36593;SDS011;22603;47.900;8.146;2023-04-12T01:10:08;3.00;;;0.93;;
36593;SDS011;22603;47.900;8.146;2023-04-12T01:13:05;2.10;;;0.87;;
36593;SDS011;22603;47.900;8.146;2023-04-12T01:16:04;2.17;;;0.90;;
36593;SDS011;22603;47.900;8.146;2023-04-12T01:18:58;1.33;;;0.83;;
36593;SDS011;22603;47.900;8.146;2023-04-12T01:21:52;2.37;;;0.90;;
36593;SDS011;22603;47.900;8.146;2023-04-12T01:24:50;3.10;;;1.20;;
36593;SDS011;22603;47.900;8.146;2023-04-12T01:27:51;3.80;;;1.10;;
36593;SDS011;22603;47.900;8.146;2023-04-12T01:30:40;1.77;;;1.07;;
36593;SDS011;22603;47.900;8.146;2023-04-12T01:33:28;2.97;;;0.60;;
36593;SDS011;22603;47.900;8.146;2023-04-12T01:36:22;1.90;;;1.00;;
36593;SDS011;22603;47.900;8.146;2023-04-12T01:39:12;2.90;;;1.17;;
36593;SDS011;22603;47.900;8.146;2023-04-12T01:41:59;3.07;;;1.10;;
36593;SDS011;22603;47.900;8.146;2023-04-12T01:44:49;1.90;;;0.80;;
36593;SDS011;22603;47.900;8.146;2023-04-12T01:47:35;3.60;;;1.37;;
36593;SDS011;22603;47.900;8.146;2023-04-12T01:50:24;1.87;;;0.97;;
36593;SDS011;22603;47.900;8.146;2023-04-12T01:53:20;2.37;;;0.90;;
36593;SDS011;22603;47.900;8.146;2023-04-12T01:56:11;2.07;;;1.00;;
36593;SDS011;22603;47.900;8.146;2023-04-12T01:58:59;1.03;;;0.80;;
36593;SDS011;22603;47.900;8.146;2023-04-12T02:01:49;2.90;;;0.93;;
36593;SDS011;22603;47.900;8.146;2023-04-12T02:04:37;1.40;;;0.87;;
36593;SDS011;22603;47.900;8.146;2023-04-12T02:07:24;2.33;;;0.93;;
36593;SDS011;22603;47.900;8.146;2023-04-12T02:10:12;3.23;;;1.10;;
36593;SDS011;22603;47.900;8.146;2023-04-12T02:13:00;2.23;;;0.90;;
36593;SDS011;22603;47.900;8.146;2023-04-12T02:15:47;4.27;;;1.20;;
36593;SDS011;22603;47.900;8.146;2023-04-12T02:18:35;1.57;;;0.90;;
36593;SDS011;22603;47.900;8.146;2023-04-12T02:21:25;3.27;;;1.50;;
36593;SDS011;22603;47.900;8.146;2023-04-12T02:24:13;3.30;;;0.97;;
36593;SDS011;22603;47.900;8.146;2023-04-12T02:27:00;3.63;;;0.93;;
36593;SDS011;22603;47.900;8.146;2023-04-12T02:29:48;1.80;;;0.90;;
36593;SDS011;22603;47.900;8.146;2023-04-12T02:32:35;2.73;;;1.03;;
36593;SDS011;22603;47.900;8.146;2023-04-12T02:35:30;1.73;;;0.90;;
36593;SDS011;22603;47.900;8.146;2023-04-12T02:38:17;2.57;;;0.83;;
36593;SDS011;22603;47.900;8.146;2023-04-12T02:41:05;2.13;;;0.90;;
36593;SDS011;22603;47.900;8.146;2023-04-12T02:43:52;2.80;;;1.10;;
36593;SDS011;22603;47.900;8.146;2023-04-12T02:46:39;3.27;;;1.07;;
36593;SDS011;22603;47.900;8.146;2023-04-12T02:49:26;3.07;;;1.20;;
36593;SDS011;22603;47.900;8.146;2023-04-12T02:52:14;2.33;;;0.90;;
36593;SDS011;22603;47.900;8.146;2023-04-12T02:55:01;2.20;;;1.20;;
36593;SDS011;22603;47.900;8.146;2023-04-12T02:57:49;0.80;;;0.70;;
36593;SDS011;22603;47.900;8.146;2023-04-12T03:00:35;2.90;;;1.10;;
36593;SDS011;22603;47.900;8.146;2023-04-12T03:03:22;2.60;;;1.10;;
36593;SDS011;22603;47.900;8.146;2023-04-12T03:06:10;2.17;;;0.93;;
36593;SDS011;22603;47.900;8.146;2023-04-12T03:08:58;1.77;;;0.83;;
36593;SDS011;22603;47.900;8.146;2023-04-12T03:11:45;2.17;;;1.00;;
36593;SDS011;22603;47.900;8.146;2023-04-12T03:14:32;2.53;;;1.13;;
36593;SDS011;22603;47.900;8.146;2023-04-12T03:17:19;3.63;;;1.10;;
36593;SDS011;22603;47.900;8.146;2023-04-12T03:20:07;5.17;;;1.30;;
36593;SDS011;22603;47.900;8.146;2023-04-12T03:22:55;2.00;;;0.90;;
36593;SDS011;22603;47.900;8.146;2023-04-12T03:25:43;3.43;;;1.00;;
36593;SDS011;22603;47.900;8.146;2023-04-12T03:28:30;2.80;;;1.10;;
36593;SDS011;22603;47.900;8.146;2023-04-12T03:31:17;0.97;;;0.73;;
36593;SDS011;22603;47.900;8.146;2023-04-12T03:34:05;4.17;;;1.27;;
36593;SDS011;22603;47.900;8.146;2023-04-12T03:36:52;5.57;;;1.00;;
36593;SDS011;22603;47.900;8.146;2023-04-12T03:39:40;3.80;;;1.23;;
36593;SDS011;22603;47.900;8.146;2023-04-12T03:42:33;2.97;;;0.90;;
36593;SDS011;22603;47.900;8.146;2023-04-12T03:45:20;3.63;;;0.90;;
36593;SDS011;22603;47.900;8.146;2023-04-12T03:48:07;2.90;;;1.17;;
36593;SDS011;22603;47.900;8.146;2023-04-12T03:50:55;1.67;;;1.00;;
36593;SDS011;22603;47.900;8.146;2023-04-12T03:53:44;3.77;;;1.53;;
36593;SDS011;22603;47.900;8.146;2023-04-12T03:56:30;3.33;;;1.17;;
36593;SDS011;22603;47.900;8.146;2023-04-12T03:59:19;4.87;;;1.20;;
36593;SDS011;22603;47.900;8.146;2023-04-12T04:02:06;4.87;;;1.60;;
36593;SDS011;22603;47.900;8.146;2023-04-12T04:04:53;4.13;;;1.43;;
36593;SDS011;22603;47.900;8.146;2023-04-12T04:07:40;3.00;;;1.30;;
36593;SDS011;22603;47.900;8.146;2023-04-12T04:10:27;2.10;;;1.20;;
36593;SDS011;22603;47.900;8.146;2023-04-12T04:13:13;3.47;;;1.40;;
36593;SDS011;22603;47.900;8.146;2023-04-12T04:16:03;3.37;;;1.30;;
36593;SDS011;22603;47.900;8.146;2023-04-12T04:18:51;3.43;;;1.23;;
36593;SDS011;22603;47.900;8.146;2023-04-12T04:21:38;5.30;;;1.60;;
36593;SDS011;22603;47.900;8.146;2023-04-12T04:24:26;5.10;;;1.37;;
36593;SDS011;22603;47.900;8.146;2023-04-12T04:27:13;3.27;;;1.40;;
36593;SDS011;22603;47.900;8.146;2023-04-12T04:30:01;4.77;;;1.30;;
36593;SDS011;22603;47.900;8.146;2023-04-12T04:32:50;6.03;;;1.53;;
36593;SDS011;22603;47.900;8.146;2023-04-12T04:35:37;3.20;;;1.37;;
36593;SDS011;22603;47.900;8.146;2023-04-12T04:38:25;6.40;;;1.50;;
36593;SDS011;22603;47.900;8.146;2023-04-12T04:41:12;3.47;;;1.50;;
36593;SDS011;22603;47.900;8.146;2023-04-12T04:44:01;3.70;;;1.13;;
36593;SDS011;22603;47.900;8.146;2023-04-12T04:46:53;5.17;;;1.40;;
36593;SDS011;22603;47.900;8.146;2023-04-12T04:49:42;9.93;;;1.90;;
36593;SDS011;22603;47.900;8.146;2023-04-12T04:52:29;4.83;;;1.40;;
36593;SDS011;22603;47.900;8.146;2023-04-12T04:55:16;2.93;;;1.13;;
36593;SDS011;22603;47.900;8.146;2023-04-12T04:58:05;8.17;;;1.53;;
36593;SDS011;22603;47.900;8.146;2023-04-12T05:00:54;3.70;;;1.20;;
36593;SDS011;22603;47.900;8.146;2023-04-12T05:03:41;1.87;;;0.90;;
36593;SDS011;22603;47.900;8.146;2023-04-12T05:06:30;3.33;;;1.40;;
36593;SDS011;22603;47.900;8.146;2023-04-12T05:09:18;2.20;;;1.17;;
36593;SDS011;22603;47.900;8.146;2023-04-12T05:12:05;3.43;;;1.10;;
36593;SDS011;22603;47.900;8.146;2023-04-12T05:14:52;3.50;;;1.40;;
36593;SDS011;22603;47.900;8.146;2023-04-12T05:17:55;2.30;;;0.97;;
36593;SDS011;22603;47.900;8.146;2023-04-12T05:20:42;4.90;;;1.40;;
36593;SDS011;22603;47.900;8.146;2023-04-12T05:23:33;4.17;;;1.23;;
36593;SDS011;22603;47.900;8.146;2023-04-12T05:26:21;4.47;;;1.23;;
36593;SDS011;22603;47.900;8.146;2023-04-12T05:29:08;5.03;;;1.07;;
36593;SDS011;22603;47.900;8.146;2023-04-12T05:31:55;4.27;;;1.50;;
36593;SDS011;22603;47.900;8.146;2023-04-12T05:34:41;4.07;;;1.30;;
36593;SDS011;22603;47.900;8.146;2023-04-12T05:37:28;7.70;;;1.20;;
36593;SDS011;22603;47.900;8.146;2023-04-12T05:40:16;2.60;;;1.17;;
36593;SDS011;22603;47.900;8.146;2023-04-12T05:43:03;2.17;;;1.20;;
36593;SDS011;22603;47.900;8.146;2023-04-12T05:45:50;3.17;;;1.13;;
36593;SDS011;22603;47.900;8.146;2023-04-12T05:48:37;3.10;;;1.50;;
36593;SDS011;22603;47.900;8.146;2023-04-12T05:51:25;4.20;;;1.60;;
36593;SDS011;22603;47.900;8.146;2023-04-12T05:54:22;6.77;;;1.97;;
36593;SDS011;22603;47.900;8.146;2023-04-12T05:57:10;6.63;;;1.57;;
36593;SDS011;22603;47.900;8.146;2023-04-12T05:59:58;8.07;;;2.90;;
36593;SDS011;22603;47.900;8.146;2023-04-12T06:02:45;7.83;;;3.13;;
36593;SDS011;22603;47.900;8.146;2023-04-12T06:05:34;7.17;;;2.37;;
36593;SDS011;22603;47.900;8.146;2023-04-12T06:08:22;6.33;;;2.00;;
36593;SDS011;22603;47.900;8.146;2023-04-12T06:11:08;8.80;;;1.80;;
36593;SDS011;22603;47.900;8.146;2023-04-12T06:13:57;10.33;;;1.90;;
36593;SDS011;22603;47.900;8.146;2023-04-12T06:16:44;6.63;;;2.53;;
36593;SDS011;22603;47.900;8.146;2023-04-12T06:19:31;6.63;;;2.83;;
36593;SDS011;22603;47.900;8.146;2023-04-12T06:22:18;7.90;;;2.20;;
36593;SDS011;22603;47.900;8.146;2023-04-12T06:25:06;6.47;;;2.30;;
36593;SDS011;22603;47.900;8.146;2023-04-12T06:27:53;10.40;;;4.53;;
36593;SDS011;22603;47.900;8.146;2023-04-12T06:30:42;14.63;;;6.23;;
36593;SDS011;22603;47.900;8.146;2023-04-12T06:33:28;7.80;;;3.30;;
36593;SDS011;22603;47.900;8.146;2023-04-12T06:36:15;9.00;;;2.97;;
36593;SDS011;22603;47.900;8.146;2023-04-12T06:39:02;7.03;;;1.97;;
36593;SDS011;22603;47.900;8.146;2023-04-12T06:41:52;8.47;;;2.63;;
36593;SDS011;22603;47.900;8.146;2023-04-12T06:44:41;5.97;;;1.90;;
36593;SDS011;22603;47.900;8.146;2023-04-12T06:47:30;4.47;;;1.53;;
36593;SDS011;22603;47.900;8.146;2023-04-12T06:50:17;8.20;;;2.30;;
36593;SDS011;22603;47.900;8.146;2023-04-12T06:53:04;9.37;;;1.60;;
36593;SDS011;22603;47.900;8.146;2023-04-12T06:55:51;6.30;;;1.97;;
36593;SDS011;22603;47.900;8.146;2023-04-12T06:58:38;6.83;;;2.67;;
36593;SDS011;22603;47.900;8.146;2023-04-12T07:01:25;5.57;;;2.50;;
36593;SDS011;22603;47.900;8.146;2023-04-12T07:04:13;4.00;;;1.73;;
36593;SDS011;22603;47.900;8.146;2023-04-12T07:07:01;7.13;;;2.97;;
36593;SDS011;22603;47.900;8.146;2023-04-12T07:09:48;9.77;;;4.23;;
36593;SDS011;22603;47.900;8.146;2023-04-12T07:12:36;9.10;;;3.77;;
36593;SDS011;22603;47.900;8.146;2023-04-12T07:15:22;5.93;;;2.13;;
36593;SDS011;22603;47.900;8.146;2023-04-12T07:18:10;7.03;;;2.80;;
36593;SDS011;22603;47.900;8.146;2023-04-12T07:20:58;4.73;;;1.97;;
36593;SDS011;22603;47.900;8.146;2023-04-12T07:23:45;7.87;;;2.20;;
36593;SDS011;22603;47.900;8.146;2023-04-12T07:26:35;11.47;;;2.60;;
36593;SDS011;22603;47.900;8.146;2023-04-12T07:29:22;9.07;;;3.30;;
36593;SDS011;22603;47.900;8.146;2023-04-12T07:32:09;8.70;;;2.97;;
36593;SDS011;22603;47.900;8.146;2023-04-12T07:34:56;11.93;;;3.70;;
36593;SDS011;22603;47.900;8.146;2023-04-12T07:37:44;8.70;;;1.53;;
36593;SDS011;22603;47.900;8.146;2023-04-12T07:40:31;5.33;;;1.70;;
36593;SDS011;22603;47.900;8.146;2023-04-12T07:43:18;8.17;;;1.67;;
36593;SDS011;22603;47.900;8.146;2023-04-12T07:46:05;4.30;;;1.30;;
36593;SDS011;22603;47.900;8.146;2023-04-12T07:48:52;5.70;;;1.10;;
36593;SDS011;22603;47.900;8.146;2023-04-12T07:51:40;7.90;;;1.60;;
36593;SDS011;22603;47.900;8.146;2023-04-12T07:54:29;5.70;;;1.23;;
36593;SDS011;22603;47.900;8.146;2023-04-12T07:57:15;4.33;;;1.40;;
36593;SDS011;22603;47.900;8.146;2023-04-12T08:00:03;3.53;;;1.30;;
36593;SDS011;22603;47.900;8.146;2023-04-12T08:02:51;3.63;;;1.10;;
36593;SDS011;22603;47.900;8.146;2023-04-12T08:05:38;3.70;;;1.00;;
36593;SDS011;22603;47.900;8.146;2023-04-12T08:08:26;2.30;;;0.90;;
36593;SDS011;22603;47.900;8.146;2023-04-12T08:11:14;0.97;;;0.77;;
36593;SDS011;22603;47.900;8.146;2023-04-12T08:14:02;5.87;;;1.43;;
36593;SDS011;22603;47.900;8.146;2023-04-12T08:16:49;3.60;;;0.97;;
36593;SDS011;22603;47.900;8.146;2023-04-12T08:19:36;2.63;;;1.17;;
36593;SDS011;22603;47.900;8.146;2023-04-12T08:22:23;4.27;;;1.10;;
36593;SDS011;22603;47.900;8.146;2023-04-12T08:25:10;5.77;;;1.13;;
36593;SDS011;22603;47.900;8.146;2023-04-12T08:27:58;3.30;;;1.30;;
36593;SDS011;22603;47.900;8.146;2023-04-12T08:30:45;4.20;;;1.10;;
36593;SDS011;22603;47.900;8.146;2023-04-12T08:33:32;4.10;;;1.03;;
36593;SDS011;22603;47.900;8.146;2023-04-12T08:36:20;4.70;;;1.07;;
36593;SDS011;22603;47.900;8.146;2023-04-12T08:39:07;2.43;;;1.10;;
36593;SDS011;22603;47.900;8.146;2023-04-12T08:41:54;4.43;;;1.20;;
36593;SDS011;22603;47.900;8.146;2023-04-12T08:44:44;5.63;;;1.43;;
36593;SDS011;22603;47.900;8.146;2023-04-12T08:47:31;5.80;;;1.33;;
36593;SDS011;22603;47.900;8.146;2023-04-12T08:50:19;3.60;;;1.43;;
36593;SDS011;22603;47.900;8.146;2023-04-12T08:53:08;3.10;;;1.10;;
36593;SDS011;22603;47.900;8.146;2023-04-12T08:55:59;3.37;;;1.07;;
36593;SDS011;22603;47.900;8.146;2023-04-12T08:58:46;3.07;;;1.10;;
36593;SDS011;22603;47.900;8.146;2023-04-12T09:01:35;2.93;;;1.10;;
36593;SDS011;22603;47.900;8.146;2023-04-12T09:04:26;6.50;;;1.10;;
36593;SDS011;22603;47.900;8.146;2023-04-12T09:07:14;3.90;;;1.20;;
36593;SDS011;22603;47.900;8.146;2023-04-12T09:10:01;2.43;;;1.13;;
36593;SDS011;22603;47.900;8.146;2023-04-12T09:12:48;3.60;;;1.10;;
36593;SDS011;22603;47.900;8.146;2023-04-12T09:15:46;5.57;;;1.33;;
36593;SDS011;22603;47.900;8.146;2023-04-12T09:18:38;1.53;;;0.83;;
36593;SDS011;22603;47.900;8.146;2023-04-12T09:21:33;2.97;;;1.13;;
36593;SDS011;22603;47.900;8.146;2023-04-12T09:24:20;2.93;;;1.10;;
36593;SDS011;22603;47.900;8.146;2023-04-12T09:27:09;1.90;;;0.80;;
36593;SDS011;22603;47.900;8.146;2023-04-12T09:30:05;3.63;;;1.00;;
36593;SDS011;22603;47.900;8.146;2023-04-12T09:32:53;4.63;;;1.20;;
36593;SDS011;22603;47.900;8.146;2023-04-12T09:35:41;5.23;;;1.00;;
36593;SDS011;22603;47.900;8.146;2023-04-12T09:38:29;4.40;;;1.27;;
36593;SDS011;22603;47.900;8.146;2023-04-12T09:41:16;2.00;;;1.13;;
36593;SDS011;22603;47.900;8.146;2023-04-12T09:44:15;3.30;;;1.13;;
36593;SDS011;22603;47.900;8.146;2023-04-12T09:47:15;2.53;;;1.10;;
36593;SDS011;22603;47.900;8.146;2023-04-12T09:50:02;1.97;;;0.80;;
36593;SDS011;22603;47.900;8.146;2023-04-12T09:52:52;7.27;;;1.03;;
36593;SDS011;22603;47.900;8.146;2023-04-12T09:55:40;2.30;;;0.90;;
36593;SDS011;22603;47.900;8.146;2023-04-12T09:58:28;2.93;;;1.03;;
36593;SDS011;22603;47.900;8.146;2023-04-12T10:01:18;2.03;;;0.77;;
36593;SDS011;22603;47.900;8.146;2023-04-12T10:04:07;3.13;;;1.23;;
36593;SDS011;22603;47.900;8.146;2023-04-12T10:06:56;1.53;;;0.73;;
36593;SDS011;22603;47.900;8.146;2023-04-12T10:09:46;3.87;;;1.00;;
36593;SDS011;22603;47.900;8.146;2023-04-12T10:12:34;4.80;;;0.93;;
36593;SDS011;22603;47.900;8.146;2023-04-12T10:15:21;1.73;;;0.60;;
36593;SDS011;22603;47.900;8.146;2023-04-12T10:18:10;1.43;;;0.90;;
36593;SDS011;22603;47.900;8.146;2023-04-12T10:20:59;1.53;;;0.80;;
36593;SDS011;22603;47.900;8.146;2023-04-12T10:23:47;1.33;;;0.60;;
36593;SDS011;22603;47.900;8.146;2023-04-12T10:26:35;2.97;;;0.70;;
36593;SDS011;22603;47.900;8.146;2023-04-12T10:29:28;2.07;;;0.77;;
36593;SDS011;22603;47.900;8.146;2023-04-12T10:32:18;0.60;;;0.60;;
36593;SDS011;22603;47.900;8.146;2023-04-12T10:35:07;0.63;;;0.60;;
36593;SDS011;22603;47.900;8.146;2023-04-12T10:37:58;0.90;;;0.60;;
36593;SDS011;22603;47.900;8.146;2023-04-12T10:44:21;2.00;;;0.70;;
36593;SDS011;22603;47.900;8.146;2023-04-12T10:47:10;2.00;;;0.70;;
36593;SDS011;22603;47.900;8.146;2023-04-12T10:53:22;4.97;;;1.00;;
36593;SDS011;22603;47.900;8.146;2023-04-12T10:59:23;1.57;;;0.73;;
36593;SDS011;22603;47.900;8.146;2023-04-12T11:02:24;1.20;;;0.80;;
36593;SDS011;22603;47.900;8.146;2023-04-12T11:05:12;3.50;;;0.80;;
36593;SDS011;22603;47.900;8.146;2023-04-12T11:08:03;1.10;;;0.73;;
36593;SDS011;22603;47.900;8.146;2023-04-12T11:10:50;2.50;;;1.00;;
36593;SDS011;22603;47.900;8.146;2023-04-12T11:13:44;2.77;;;0.90;;
36593;SDS011;22603;47.900;8.146;2023-04-12T11:16:33;1.90;;;0.90;;
36593;SDS011;22603;47.900;8.146;2023-04-12T11:19:40;1.47;;;0.63;;
36593;SDS011;22603;47.900;8.146;2023-04-12T11:22:29;2.00;;;0.90;;
36593;SDS011;22603;47.900;8.146;2023-04-12T11:25:17;0.70;;;0.67;;
36593;SDS011;22603;47.900;8.146;2023-04-12T11:28:04;0.70;;;0.53;;
36593;SDS011;22603;47.900;8.146;2023-04-12T11:31:09;1.80;;;0.60;;
36593;SDS011;22603;47.900;8.146;2023-04-12T11:33:57;0.70;;;0.60;;
36593;SDS011;22603;47.900;8.146;2023-04-12T11:36:45;1.03;;;0.67;;
36593;SDS011;22603;47.900;8.146;2023-04-12T11:39:32;1.10;;;0.63;;
36593;SDS011;22603;47.900;8.146;2023-04-12T11:42:21;1.40;;;0.70;;
36593;SDS011;22603;47.900;8.146;2023-04-12T11:45:09;0.83;;;0.60;;
36593;SDS011;22603;47.900;8.146;2023-04-12T11:48:02;2.77;;;0.70;;
36593;SDS011;22603;47.900;8.146;2023-04-12T11:50:55;0.93;;;0.60;;
36593;SDS011;22603;47.900;8.146;2023-04-12T11:53:55;2.80;;;0.50;;
36593;SDS011;22603;47.900;8.146;2023-04-12T11:56:43;1.30;;;0.70;;
36593;SDS011;22603;47.900;8.146;2023-04-12T11:59:30;2.57;;;0.70;;
36593;SDS011;22603;47.900;8.146;2023-04-12T12:02:18;1.27;;;0.60;;
36593;SDS011;22603;47.900;8.146;2023-04-12T12:05:09;1.10;;;0.63;;
36593;SDS011;22603;47.900;8.146;2023-04-12T12:07:58;0.93;;;0.63;;
36593;SDS011;22603;47.900;8.146;2023-04-12T12:10:50;0.77;;;0.63;;
36593;SDS011;22603;47.900;8.146;2023-04-12T12:13:53;1.77;;;0.83;;
36593;SDS011;22603;47.900;8.146;2023-04-12T12:16:41;2.90;;;0.70;;
36593;SDS011;22603;47.900;8.146;2023-04-12T12:19:28;2.03;;;0.90;;
36593;SDS011;22603;47.900;8.146;2023-04-12T12:22:17;1.03;;;0.70;;
36593;SDS011;22603;47.900;8.146;2023-04-12T12:25:07;1.87;;;0.83;;
36593;SDS011;22603;47.900;8.146;2023-04-12T12:27:55;2.03;;;0.67;;
36593;SDS011;22603;47.900;8.146;2023-04-12T12:30:43;1.63;;;0.87;;
36593;SDS011;22603;47.900;8.146;2023-04-12T12:33:35;1.80;;;0.80;;
36593;SDS011;22603;47.900;8.146;2023-04-12T12:36:31;0.97;;;0.63;;
36593;SDS011;22603;47.900;8.146;2023-04-12T12:39:20;3.63;;;0.80;;
36593;SDS011;22603;47.900;8.146;2023-04-12T12:42:10;2.67;;;0.67;;
36593;SDS011;22603;47.900;8.146;2023-04-12T12:44:57;1.87;;;0.70;;
36593;SDS011;22603;47.900;8.146;2023-04-12T12:47:45;1.07;;;0.77;;
36593;SDS011;22603;47.900;8.146;2023-04-12T12:50:34;0.80;;;0.50;;
36593;SDS011;22603;47.900;8.146;2023-04-12T12:53:21;1.27;;;0.60;;
36593;SDS011;22603;47.900;8.146;2023-04-12T12:56:08;3.23;;;0.87;;
36593;SDS011;22603;47.900;8.146;2023-04-12T12:58:57;1.20;;;0.60;;
36593;SDS011;22603;47.900;8.146;2023-04-12T13:01:44;3.03;;;0.70;;
36593;SDS011;22603;47.900;8.146;2023-04-12T13:04:31;0.73;;;0.50;;
36593;SDS011;22603;47.900;8.146;2023-04-12T13:07:19;1.43;;;0.70;;
36593;SDS011;22603;47.900;8.146;2023-04-12T13:10:06;1.03;;;0.73;;
36593;SDS011;22603;47.900;8.146;2023-04-12T13:12:53;2.80;;;1.20;;
36593;SDS011;22603;47.900;8.146;2023-04-12T13:15:42;3.07;;;0.90;;
36593;SDS011;22603;47.900;8.146;2023-04-12T13:18:30;3.70;;;0.90;;
36593;SDS011;22603;47.900;8.146;2023-04-12T13:21:17;3.20;;;0.80;;
36593;SDS011;22603;47.900;8.146;2023-04-12T13:24:04;0.40;;;0.40;;
36593;SDS011;22603;47.900;8.146;2023-04-12T13:26:52;0.70;;;0.60;;
36593;SDS011;22603;47.900;8.146;2023-04-12T13:29:39;2.77;;;0.77;;
36593;SDS011;22603;47.900;8.146;2023-04-12T13:32:28;1.37;;;0.50;;
36593;SDS011;22603;47.900;8.146;2023-04-12T13:35:15;1.90;;;0.90;;
36593;SDS011;22603;47.900;8.146;2023-04-12T13:38:02;1.80;;;0.73;;
36593;SDS011;22603;47.900;8.146;2023-04-12T13:40:49;1.47;;;0.70;;
36593;SDS011;22603;47.900;8.146;2023-04-12T13:43:36;2.40;;;0.80;;
36593;SDS011;22603;47.900;8.146;2023-04-12T13:46:23;0.80;;;0.63;;
36593;SDS011;22603;47.900;8.146;2023-04-12T13:49:12;0.50;;;0.50;;
36593;SDS011;22603;47.900;8.146;2023-04-12T13:52:00;0.70;;;0.60;;
36593;SDS011;22603;47.900;8.146;2023-04-12T13:54:48;1.43;;;0.80;;
36593;SDS011;22603;47.900;8.146;2023-04-12T13:57:35;0.60;;;0.57;;
36593;SDS011;22603;47.900;8.146;2023-04-12T14:00:22;2.57;;;0.60;;
36593;SDS011;22603;47.900;8.146;2023-04-12T14:03:09;1.03;;;0.40;;
36593;SDS011;22603;47.900;8.146;2023-04-12T14:05:57;0.83;;;0.73;;
36593;SDS011;22603;47.900;8.146;2023-04-12T14:08:44;1.50;;;0.60;;
36593;SDS011;22603;47.900;8.146;2023-04-12T14:11:43;0.77;;;0.50;;
36593;SDS011;22603;47.900;8.146;2023-04-12T14:14:31;0.33;;;0.33;;
36593;SDS011;22603;47.900;8.146;2023-04-12T14:17:18;1.23;;;0.40;;
36593;SDS011;22603;47.900;8.146;2023-04-12T14:20:06;0.47;;;0.40;;
36593;SDS011;22603;47.900;8.146;2023-04-12T14:22:55;1.33;;;0.70;;
36593;SDS011;22603;47.900;8.146;2023-04-12T14:25:42;1.10;;;0.53;;
36593;SDS011;22603;47.900;8.146;2023-04-12T14:28:29;0.33;;;0.33;;
36593;SDS011;22603;47.900;8.146;2023-04-12T14:31:18;0.30;;;0.30;;
36593;SDS011;22603;47.900;8.146;2023-04-12T14:34:06;0.83;;;0.50;;
36593;SDS011;22603;47.900;8.146;2023-04-12T14:36:53;1.13;;;0.50;;
36593;SDS011;22603;47.900;8.146;2023-04-12T14:39:42;0.57;;;0.50;;
36593;SDS011;22603;47.900;8.146;2023-04-12T14:42:29;1.13;;;0.60;;
36593;SDS011;22603;47.900;8.146;2023-04-12T14:45:16;1.07;;;0.50;;
36593;SDS011;22603;47.900;8.146;2023-04-12T14:48:04;0.83;;;0.50;;
36593;SDS011;22603;47.900;8.146;2023-04-12T14:50:52;1.37;;;0.60;;
36593;SDS011;22603;47.900;8.146;2023-04-12T14:53:39;1.83;;;0.70;;
36593;SDS011;22603;47.900;8.146;2023-04-12T14:56:28;0.77;;;0.50;;
36593;SDS011;22603;47.900;8.146;2023-04-12T14:59:22;0.70;;;0.60;;
36593;SDS011;22603;47.900;8.146;2023-04-12T15:02:11;1.80;;;0.77;;
36593;SDS011;22603;47.900;8.146;2023-04-12T15:04:58;2.00;;;0.77;;
36593;SDS011;22603;47.900;8.146;2023-04-12T15:07:51;1.47;;;0.60;;
36593;SDS011;22603;47.900;8.146;2023-04-12T15:10:39;2.30;;;0.57;;
36593;SDS011;22603;47.900;8.146;2023-04-12T15:13:28;0.93;;;0.50;;
36593;SDS011;22603;47.900;8.146;2023-04-12T15:16:19;0.40;;;0.40;;
36593;SDS011;22603;47.900;8.146;2023-04-12T15:19:07;1.40;;;0.53;;
36593;SDS011;22603;47.900;8.146;2023-04-12T15:22:03;1.07;;;0.43;;
36593;SDS011;22603;47.900;8.146;2023-04-12T15:24:51;1.20;;;0.50;;
36593;SDS011;22603;47.900;8.146;2023-04-12T15:27:37;0.40;;;0.40;;
36593;SDS011;22603;47.900;8.146;2023-04-12T15:30:26;1.30;;;0.47;;
36593;SDS011;22603;47.900;8.146;2023-04-12T15:33:13;0.40;;;0.40;;
36593;SDS011;22603;47.900;8.146;2023-04-12T15:36:00;0.27;;;0.27;;
36593;SDS011;22603;47.900;8.146;2023-04-12T15:38:47;0.30;;;0.30;;
36593;SDS011;22603;47.900;8.146;2023-04-12T15:41:36;0.30;;;0.20;;
36593;SDS011;22603;47.900;8.146;2023-04-12T15:44:23;0.30;;;0.30;;
36593;SDS011;22603;47.900;8.146;2023-04-12T15:47:17;1.20;;;0.47;;
36593;SDS011;22603;47.900;8.146;2023-04-12T15:50:06;0.87;;;0.50;;
36593;SDS011;22603;47.900;8.146;2023-04-12T15:52:53;0.43;;;0.40;;
36593;SDS011;22603;47.900;8.146;2023-04-12T15:55:42;0.63;;;0.30;;
36593;SDS011;22603;47.900;8.146;2023-04-12T15:58:30;1.50;;;0.40;;
36593;SDS011;22603;47.900;8.146;2023-04-12T16:01:17;0.20;;;0.20;;
36593;SDS011;22603;47.900;8.146;2023-04-12T16:04:06;0.23;;;0.23;;
36593;SDS011;22603;47.900;8.146;2023-04-12T16:06:54;2.97;;;0.30;;
36593;SDS011;22603;47.900;8.146;2023-04-12T16:09:45;0.53;;;0.30;;
36593;SDS011;22603;47.900;8.146;2023-04-12T16:12:32;0.20;;;0.20;;
36593;SDS011;22603;47.900;8.146;2023-04-12T16:15:19;0.60;;;0.40;;
36593;SDS011;22603;47.900;8.146;2023-04-12T16:18:06;3.13;;;0.43;;
36593;SDS011;22603;47.900;8.146;2023-04-12T16:20:55;0.30;;;0.30;;
36593;SDS011;22603;47.900;8.146;2023-04-12T16:23:42;0.37;;;0.37;;
36593;SDS011;22603;47.900;8.146;2023-04-12T16:26:29;0.30;;;0.30;;
36593;SDS011;22603;47.900;8.146;2023-04-12T16:29:16;0.20;;;0.20;;
36593;SDS011;22603;47.900;8.146;2023-04-12T16:32:04;0.53;;;0.40;;
36593;SDS011;22603;47.900;8.146;2023-04-12T16:34:52;0.70;;;0.50;;
36593;SDS011;22603;47.900;8.146;2023-04-12T16:37:40;3.03;;;0.33;;
36593;SDS011;22603;47.900;8.146;2023-04-12T16:40:28;0.70;;;0.50;;
36593;SDS011;22603;47.900;8.146;2023-04-12T16:43:17;0.43;;;0.40;;
36593;SDS011;22603;47.900;8.146;2023-04-12T16:46:04;0.30;;;0.30;;
36593;SDS011;22603;47.900;8.146;2023-04-12T16:48:52;0.20;;;0.20;;
36593;SDS011;22603;47.900;8.146;2023-04-12T16:51:40;0.30;;;0.30;;
36593;SDS011;22603;47.900;8.146;2023-04-12T16:54:28;0.50;;;0.40;;
36593;SDS011;22603;47.900;8.146;2023-04-12T16:57:15;0.43;;;0.30;;
36593;SDS011;22603;47.900;8.146;2023-04-12T17:00:04;0.40;;;0.40;;
36593;SDS011;22603;47.900;8.146;2023-04-12T17:03:04;0.33;;;0.30;;
36593;SDS011;22603;47.900;8.146;2023-04-12T17:05:53;0.30;;;0.30;;
36593;SDS011;22603;47.900;8.146;2023-04-12T17:08:39;0.33;;;0.33;;